Latest Coastal Weather Observations for Barrow Island

IDW60701

Issued at 3:55 am WST Friday 22 August 2014 (issued every 10 minutes, with the page automatically refreshed every 10 minutes)

About coastal observations | Map of coastal stations | Coastal observations for WA | Marine services | Other Formats
Station Details ID: 005094 Name: BARROW ISLAND AIRPORT Lat: -20.88 Lon: 115.41 Height: 6.4 m
Data from the previous 72 hours. | See also: Recent months at Barrow Island
Date/Time
WST
Temp

°C
Wind Pressure Rain
since 9am
mm
Weather Cloud Vis
km
Sea
Height
m
Swell
Dir
 
Speed
knots
Gust
knots
hPa Trend Height
m
Period
s
Dir
22/03:30am 21.0 S 21 24 1015.4 - 0.0 - - - - - - -
22/03:00am 21.0 S 21 25 1015.5 - 0.0 - - - - - - -
22/02:30am 21.0 S 22 25 1015.8 - 0.0 - - - - - - -
22/02:00am 21.0 S 19 22 1016.1 - 0.0 - - - - - - -
22/01:30am 21.1 SSW 18 21 1016.3 - 0.0 - - - - - - -
22/01:00am 21.2 SSW 19 22 1016.6 - 0.0 - - - - - - -
22/12:30am 21.5 SSW 19 22 1016.7 - 0.0 - - - - - - -
22/12:00am 21.7 SSW 16 19 1016.8 - 0.0 - - - - - - -
 
Date/Time
WST
Temp

°C
Wind Pressure Rain
since 9am
mm
Weather Cloud Vis
km
Sea
Height
m
Swell
Dir
 
Speed
knots
Gust
knots
hPa Trend Height
m
Period
s
Dir
21/11:30pm 21.7 SW 13 17 1016.9 - 0.0 - - - - - - -
21/11:00pm 21.5 SW 12 15 1017.0 - 0.0 - - - - - - -
21/10:30pm 21.5 SW 12 15 1017.1 - 0.0 - - - - - - -
21/10:00pm 21.1 WSW 11 12 1017.1 - 0.0 - - - - - - -
21/09:30pm 20.9 WSW 10 11 1017.0 - 0.0 - - - - - - -
21/09:00pm 20.9 WSW 10 11 1016.8 - 0.0 - - - - - - -
21/08:30pm 20.6 WSW 10 11 1016.6 - 0.0 - - - - - - -
21/08:00pm 20.7 WSW 9 10 1016.4 - 0.0 - - - - - - -
21/07:30pm 21.2 WSW 10 11 1016.1 - 0.0 - - - - - - -
21/07:00pm 21.5 WSW 10 12 1015.6 - 0.0 - - - - - - -
21/06:30pm 21.7 WSW 10 13 1015.3 - 0.0 - - - - - - -
21/06:00pm 22.5 WSW 12 15 1015.1 - 0.0 - - - - - - -
21/05:30pm 23.5 WSW 11 14 1014.9 - 0.0 - - - - - - -
21/05:00pm 24.3 WSW 11 13 1014.7 - 0.0 - - - - - - -
21/04:30pm 24.9 WSW 12 15 1014.6 - 0.0 - - - - - - -
21/04:00pm 25.6 WSW 12 14 1014.6 - 0.0 - - - - - - -
21/03:30pm 25.9 WSW 11 14 1014.5 - 0.0 - - - - - - -
21/03:00pm 26.2 SW 11 14 1014.6 - 0.0 - - - - - - -
21/02:30pm 26.5 SSW 9 11 1014.7 - 0.0 - - - - - - -
21/02:00pm 25.6 S 5 7 1014.9 - 0.0 - - - - - - -
21/01:30pm 25.3 SE 4 5 1015.3 - 0.0 - - - - - - -
21/01:00pm 23.7 ESE 4 5 1015.8 - 0.0 - - - - - - -
21/12:30pm 23.8 ESE 4 5 1016.1 - 0.0 - - - - - - -
21/12:00pm 23.4 E 4 5 1016.4 - 0.0 - - - - - - -
21/11:30am 23.7 E 5 5 1016.7 - 0.0 - - - - - - -
21/11:00am 23.3 E 5 7 1017.1 - 0.0 - - - - - - -
21/10:30am 23.1 E 5 7 1017.3 - 0.0 - - - - - - -
21/10:00am 22.9 ESE 7 8 1017.4 - 0.0 - - - - - - -
21/09:30am 22.3 ESE 9 11 1017.3 - 0.0 - - - - - - -
21/09:00am 22.4 SE 10 11 1017.2 - 0.0 - - - - - - -
21/08:30am 21.7 SE 13 15 1016.8 - 0.0 - - - - - - -
21/08:00am 21.1 SE 13 15 1016.5 - 0.0 - - - - - - -
21/07:30am 20.7 SE 16 19 1016.2 - 0.0 - - - - - - -
21/07:00am 20.4 SSE 17 19 1015.8 - 0.0 - - - - - - -
21/06:30am 20.3 SSE 17 19 1015.6 - 0.0 - - - - - - -
21/06:00am 20.3 SSE 17 20 1015.3 - 0.0 - - - - - - -
21/05:30am 20.4 SSE 17 20 1015.1 - 0.0 - - - - - - -
21/05:00am 20.4 S 18 21 1014.8 - 0.0 - - - - - - -
21/04:30am 20.5 S 18 20 1014.7 - 0.0 - - - - - - -
21/04:00am 20.7 S 18 21 1014.5 - 0.0 - - - - - - -
21/03:30am 20.9 S 17 19 1014.7 - 0.0 - - - - - - -
21/03:00am 20.9 S 16 18 1014.7 - 0.0 - - - - - - -
21/02:30am 21.1 SSW 15 17 1015.0 - 0.0 - - - - - - -
21/02:00am 19.7 SW 10 14 1015.3 - 0.0 - - - - - - -
21/01:30am 19.3 SW 8 9 1015.5 - 0.0 - - - - - - -
21/01:00am 19.4 SW 9 10 1015.7 - 0.0 - - - - - - -
21/12:30am 19.4 SW 10 12 1016.0 - 0.0 - - - - - - -
21/12:00am 18.3 WSW 9 10 1016.1 - 0.0 - - - - - - -
 
Date/Time
WST
Temp

°C
Wind Pressure Rain
since 9am
mm
Weather Cloud Vis
km
Sea
Height
m
Swell
Dir
 
Speed
knots
Gust
knots
hPa Trend Height
m
Period
s
Dir
20/11:30pm 18.5 WSW 10 11 1016.2 - 0.0 - - - - - - -
20/11:00pm 18.2 WSW 8 8 1016.3 - 0.0 - - - - - - -
20/10:30pm 17.4 WSW 7 8 1016.4 - 0.0 - - - - - - -
20/10:00pm 17.0 WSW 8 9 1016.4 - 0.0 - - - - - - -
20/09:30pm 17.2 SW 7 7 1016.4 - 0.0 - - - - - - -
20/09:00pm 17.0 SW 5 6 1016.4 - 0.0 - - - - - - -
20/08:30pm 18.2 CALM 0 0 1016.2 - 0.0 - - - - - - -
20/08:00pm 19.0 CALM 0 0 1015.8 - 0.0 - - - - - - -
20/07:30pm 19.5 SSW 1 3 1015.3 - 0.0 - - - - - - -
20/07:00pm 20.7 CALM 0 0 1015.1 - 0.0 - - - - - - -
20/06:30pm 21.6 CALM 0 0 1015.0 - 0.0 - - - - - - -
20/06:00pm 22.8 SSW 3 3 1014.8 - 0.0 - - - - - - -
20/05:30pm 23.6 SSW 4 5 1014.8 - 0.0 - - - - - - -
20/05:00pm 23.4 S 5 6 1014.7 - 0.0 - - - - - - -
20/04:30pm 23.8 S 5 6 1014.7 - 0.0 - - - - - - -
20/04:00pm 24.2 S 6 7 1014.8 - 0.0 - - - - - - -
20/03:30pm 24.3 S 7 9 1014.8 - 0.0 - - - - - - -
20/03:00pm 24.5 S 9 10 1014.9 - 0.0 - - - - - - -
20/02:30pm 24.6 S 9 11 1015.1 - 0.0 - - - - - - -
20/02:00pm 24.7 S 9 11 1015.5 - 0.0 - - - - - - -
20/01:30pm 24.8 S 9 11 1015.9 - 0.0 - - - - - - -
20/01:00pm 25.2 S 10 12 1016.3 - 0.0 - - - - - - -
20/12:30pm 24.4 S 10 13 1016.7 - 0.0 - - - - - - -
20/12:00pm 24.5 S 11 13 1017.1 - 0.0 - - - - - - -
20/11:30am 23.9 S 11 13 1017.4 - 0.0 - - - - - - -
20/11:00am 23.8 S 13 14 1017.6 - 0.0 - - - - - - -
20/10:30am 23.6 S 13 15 1017.8 - 0.0 - - - - - - -
20/10:00am 23.0 SSE 12 15 1018.0 - 0.0 - - - - - - -
20/09:30am 22.2 SSE 15 17 1018.1 - 0.0 - - - - - - -
20/09:00am 21.8 SSE 16 19 1018.0 - 0.0 - - - - - - -
20/08:30am 21.3 S 18 20 1017.9 - 0.0 - - - - - - -
20/08:00am 20.8 SSE 17 20 1017.5 - 0.0 - - - - - - -
20/07:30am 20.2 SSE 17 19 1017.2 - 0.0 - - - - - - -
20/07:00am 19.9 S 17 20 1017.2 - 0.0 - - - - - - -
20/06:30am 19.5 S 19 21 1016.9 - 0.0 - - - - - - -
20/06:00am 19.5 S 18 20 1016.6 - 0.0 - - - - - - -
20/05:30am 19.6 S 17 20 1016.4 - 0.0 - - - - - - -
20/05:00am 19.6 S 14 16 1016.2 - 0.0 - - - - - - -
20/04:30am 19.5 SSE 11 13 1016.1 - 0.0 - - - - - - -
20/04:00am 19.7 SSE 9 10 1016.4 - 0.0 - - - - - - -
20/03:30am 19.9 S 11 13 1016.6 - 0.0 - - - - - - -
20/03:00am 20.0 S 10 12 1016.6 - 0.0 - - - - - - -
20/02:30am 20.4 S 13 17 1016.8 - 0.0 - - - - - - -
20/02:00am 20.7 S 12 14 1016.7 - 0.0 - - - - - - -
20/01:30am 20.8 S 13 16 1016.9 - 0.0 - - - - - - -
20/01:00am 21.0 S 14 16 1016.9 - 0.0 - - - - - - -
20/12:30am 21.1 SSW 14 16 1017.1 - 0.0 - - - - - - -
20/12:00am 21.4 SSW 13 16 1017.2 - 0.0 - - - - - - -
 
Date/Time
WST
Temp

°C
Wind Pressure Rain
since 9am
mm
Weather Cloud Vis
km
Sea
Height
m
Swell
Dir
 
Speed
knots
Gust
knots
hPa Trend Height
m
Period
s
Dir
19/11:30pm 21.1 SSW 12 15 1017.5 - 0.0 - - - - - - -
19/11:00pm 21.2 SW 12 13 1017.6 - 0.0 - - - - - - -
19/10:30pm 21.1 SW 12 14 1017.7 - 0.0 - - - - - - -
19/10:00pm 21.4 SW 12 14 1017.6 - 0.0 - - - - - - -
19/09:30pm 20.5 WSW 7 9 1017.6 - 0.0 - - - - - - -
19/09:00pm 21.1 SW 9 10 1017.5 - 0.0 - - - - - - -
19/08:30pm 21.3 SW 10 12 1017.3 - 0.0 - - - - - - -
19/08:00pm 21.4 SW 10 12 1016.9 - 0.0 - - - - - - -
19/07:30pm 21.6 SW 10 12 1016.7 - 0.0 - - - - - - -
19/07:00pm 21.8 SW 10 12 1016.4 - 0.0 - - - - - - -
19/06:30pm 22.2 SW 11 13 1016.2 - 0.0 - - - - - - -
19/06:00pm 22.9 SW 14 16 1016.0 - 0.0 - - - - - - -
19/05:30pm 23.7 SW 14 17 1016.1 - 0.0 - - - - - - -
19/05:00pm 24.2 SW 15 18 1016.1 - 0.0 - - - - - - -
19/04:30pm 24.6 SW 15 19 1016.1 - 0.0 - - - - - - -
19/04:00pm 24.9 SW 16 19 1016.1 - 0.0 - - - - - - -
19/03:30pm 25.8 SW 14 17 1016.2 - 0.0 - - - - - - -
19/03:00pm 25.8 SW 15 17 1016.4 - 0.0 - - - - - - -
19/02:30pm 25.4 SW 14 16 1016.6 - 0.0 - - - - - - -
19/02:00pm 25.5 SSW 12 14 1016.8 - 0.0 - - - - - - -
19/01:30pm 24.8 SSW 12 13 1017.1 - 0.0 - - - - - - -
19/01:00pm 24.3 SSW 11 13 1017.6 - 0.0 - - - - - - -
19/12:30pm 23.3 SSW 10 11 1018.1 - 0.0 - - - - - - -
19/12:00pm 23.2 S 10 11 1018.6 - 0.0 - - - - - - -
19/11:30am 23.6 S 10 11 1018.9 - 0.0 - - - - - - -
19/11:00am 23.2 S 9 11 1019.3 - 0.0 - - - - - - -
19/10:30am 22.7 S 10 12 1019.4 - 0.0 - - - - - - -
19/10:00am 22.5 S 11 12 1019.7 - 0.0 - - - - - - -
19/09:30am 22.1 S 11 13 1019.7 - 0.0 - - - - - - -
19/09:00am 21.6 S 11 13 1019.6 - 0.0 - - - - - - -
19/08:30am 21.2 S 12 14 1019.6 - 0.0 - - - - - - -
19/08:00am 20.8 S 12 13 1019.4 - 0.0 - - - - - - -
19/07:30am 20.8 S 12 14 1019.2 - 0.0 - - - - - - -
19/07:00am 20.2 SSE 14 16 1018.9 - 0.0 - - - - - - -
19/06:30am 20.2 S 15 17 1018.8 - 0.0 - - - - - - -
19/06:00am 20.4 S 15 17 1018.5 - 0.0 - - - - - - -
19/05:30am 20.2 S 13 16 1018.2 - 0.0 - - - - - - -
19/05:00am 20.2 S 13 15 1017.9 - 0.0 - - - - - - -
19/04:30am 20.3 S 14 16 1017.8 - 0.0 - - - - - - -
19/04:00am 20.6 S 12 14 1017.8 - 0.0 - - - - - - -

Other Formats:

Comma delimited format used in spreadsheet applications
http://www.bom.gov.au/fwo/IDW60701/IDW60701.95304.axf

JavaScript Object Notation format (JSON) in row-major order
http://www.bom.gov.au/fwo/IDW60701/IDW60701.95304.json